Main page
METAR-TAF:

METAR-TAF

Airports :

Bojnord Airport

Bojnourd, Iran

latitude: 37-28N, longitude: 057-20E, elevation: 1074 m

Current weather observation

The report was made 41 minutes ago, at 18:00 UTC
Wind 4 kt from the West/Southwest
Temperature 6°C
Humidity 70%
Pressure 1025 hPa
Visibility 10 km or more
Few clouds at a height of 1000 ft
Broken clouds at a height of 3000 ft

METAR: OIMN 191800Z 25004KT 9999 FEW010 BKN030 06/01 Q1025

Time: 22:11 (18:41 UTC)


TAF: missing

Weather observations and forecasts of more than 4000 airports (METAR and TAF reports).

The available stations are represented by yellow and red dots on the map.

Hover mouse over dot to see the name of the station.

Then click to see weather observations and forecasts.

To change the map : click on the green buttons with a black cross to zoom in, on the green button with a dash to zoom out, or on the green arrows for adjacent maps.


METAR-TAF: